Time;durP1;ratioP1;P1;durP2;ratioP2;P2;SDS_P1;SDS_P2;PMS_P1;PMS_P2;Temp;Humidity;BMP_temperature;BMP_pressure;BME280_temperature;BME280_humidity;BME280_pressure;Samples;Min_cycle;Max_cycle;Signal;HPM_P1;HPM_P2
2021/07/19 00:01:40;;;;;;;;;5.00;3.67;;;;;23.94;50.01;101798.72;4996409;28;45294;-91
2021/07/19 00:04:06;;;;;;;;;5.00;5.00;;;;;23.87;50.54;101793.00;4982626;28;45659;-90
2021/07/19 00:06:31;;;;;;;;;5.00;5.00;;;;;23.84;50.24;101791.44;5012654;28;47536;-91
2021/07/19 00:08:57;;;;;;;;;4.67;4.00;;;;;23.82;50.29;101797.81;5011660;28;45371;-91
2021/07/19 00:11:23;;;;;;;;;6.00;5.33;;;;;23.79;50.67;101793.59;5012967;28;45300;-91
2021/07/19 00:13:49;;;;;;;;;5.00;5.00;;;;;23.75;50.32;101792.16;4994001;28;45414;-91
2021/07/19 00:16:15;;;;;;;;;5.33;5.33;;;;;23.71;50.61;101793.34;4995629;28;48305;-91
2021/07/19 00:18:40;;;;;;;;;6.33;5.67;;;;;23.69;50.31;101789.97;4996049;28;45466;-90
2021/07/19 00:21:06;;;;;;;;;4.33;4.33;;;;;23.65;50.25;101796.47;4996196;28;45358;-91
2021/07/19 00:23:31;;;;;;;;;5.67;4.67;;;;;23.60;50.69;101789.69;4992576;28;45545;-91
2021/07/19 00:25:57;;;;;;;;;7.67;5.67;;;;;23.55;51.00;101789.19;4995751;28;47479;-91
2021/07/19 00:28:22;;;;;;;;;4.33;4.33;;;;;23.55;50.74;101791.84;4983364;28;45468;-91
2021/07/19 00:30:48;;;;;;;;;6.00;6.00;;;;;23.52;50.71;101793.88;4995838;28;45462;-91
2021/07/19 00:33:14;;;;;;;;;6.25;5.50;;;;;23.50;50.66;101796.66;4996257;28;45531;-91
2021/07/19 00:35:40;;;;;;;;;5.75;4.75;;;;;;;;4992061;28;47464;-91
2021/07/19 00:38:05;;;;;;;;;6.00;5.00;;;;;23.40;51.21;101790.31;4997383;28;45240;-91
2021/07/19 00:40:31;;;;;;;;;5.50;4.00;;;;;23.39;51.42;101791.28;4995813;28;45276;-91
2021/07/19 00:42:58;;;;;;;;;6.25;6.25;;;;;23.38;51.16;101800.22;4997456;28;45424;-91
2021/07/19 00:45:26;;;;;;;;;5.33;4.67;;;;;23.35;51.58;101791.53;4992983;28;48402;-91
2021/07/19 00:47:53;;;;;;;;;5.67;4.67;;;;;23.37;51.74;101802.00;4995545;28;46063;-91
2021/07/19 00:50:21;;;;;;;;;6.00;6.00;;;;;23.34;51.72;101787.16;4996173;28;45326;-91
2021/07/19 00:52:48;;;;;;;;;6.00;5.33;;;;;23.33;51.41;101784.63;4995976;28;45417;-91
2021/07/19 00:55:16;;;;;;;;;6.50;5.00;;;;;23.32;51.75;101782.91;4994066;28;48528;-91
2021/07/19 00:57:45;;;;;;;;;5.25;5.00;;;;;23.31;51.76;101791.81;4996327;28;45461;-91
2021/07/19 01:00:12;;;;;;;;;5.33;5.33;;;;;23.31;51.17;101798.03;4995684;28;45302;-91
2021/07/19 01:02:41;;;;;;;;;5.00;5.00;;;;;23.28;51.73;101798.19;4995779;28;45311;-91
2021/07/19 01:05:09;;;;;;;;;9.67;6.00;;;;;23.24;51.74;101796.75;4995226;28;46752;-90
2021/07/19 01:07:38;;;;;;;;;5.75;5.25;;;;;23.21;51.66;101789.00;4992889;28;45218;-91
2021/07/19 01:10:17;;;;;;;;;6.00;6.00;;;;;23.20;51.59;101792.63;4995505;28;45340;-91
2021/07/19 01:12:48;;;;;;;;;5.00;5.00;;;;;23.18;51.91;101782.09;4995815;28;45379;-91
2021/07/19 01:15:14;;;;;;;;;6.25;5.50;;;;;23.17;51.69;101782.22;4995130;28;47389;-90
2021/07/19 01:17:41;;;;;;;;;5.33;5.00;;;;;23.18;51.57;101786.56;4994665;28;45776;-91
2021/07/19 01:20:08;;;;;;;;;6.33;5.00;;;;;23.14;51.82;101780.63;4998230;28;45405;-91
2021/07/19 01:22:42;;;;;;;;;7.67;5.67;;;;;23.14;51.69;101787.78;4998969;28;44987;-91
2021/07/19 01:25:35;;;;;;;;;5.67;3.67;;;;;23.07;52.07;101788.22;4995246;28;47461;-91
2021/07/19 01:28:09;;;;;;;;;4.33;4.33;;;;;23.02;52.07;101784.19;4982919;28;45418;-91
2021/07/19 01:30:41;;;;;;;;;4.00;4.00;;;;;22.99;52.23;101784.44;4998484;28;45330;-91
2021/07/19 01:33:07;;;;;;;;;4.33;4.33;;;;;22.94;52.45;101776.78;4999146;28;45296;-91
2021/07/19 01:35:36;;;;;;;;;7.00;6.33;;;;;22.90;52.45;101770.84;4998436;28;47123;-91
2021/07/19 01:38:02;;;;;;;;;7.00;7.00;;;;;22.89;52.02;101773.63;4997999;28;45386;-92
2021/07/19 01:40:28;;;;;;;;;7.00;7.00;;;;;22.81;52.23;101772.38;5013747;28;45355;-92
2021/07/19 01:42:56;;;;;;;;;7.33;7.00;;;;;22.77;52.76;101775.38;4998850;28;45508;-91
2021/07/19 01:45:22;;;;;;;;;9.33;8.00;;;;;22.72;52.91;101775.66;4998307;28;47275;-91
2021/07/19 01:47:49;;;;;;;;;5.33;5.33;;;;;22.70;53.39;101780.25;4998494;28;45296;-91
2021/07/19 01:50:15;;;;;;;;;7.00;6.00;;;;;22.67;52.66;101769.84;4984166;28;45497;-91
2021/07/19 01:52:41;;;;;;;;;6.67;6.00;;;;;22.63;52.65;101771.03;5000257;28;45382;-91
2021/07/19 01:55:07;;;;;;;;;6.33;6.33;;;;;22.57;53.05;101766.19;4999641;28;45745;-91
2021/07/19 01:57:35;;;;;;;;;8.00;6.33;;;;;22.57;53.21;101779.44;4995225;28;45435;-91
2021/07/19 02:00:02;;;;;;;;;8.00;8.00;;;;;22.52;53.07;101769.09;4982542;28;45284;-91
2021/07/19 02:02:29;;;;;;;;;7.33;7.33;;;;;22.50;53.33;101782.47;4998390;28;44848;-91
2021/07/19 02:04:54;;;;;;;;;6.33;6.00;;;;;22.48;53.35;101771.13;4998113;28;48175;-92
2021/07/19 02:07:23;;;;;;;;;6.67;6.00;;;;;22.48;53.77;101779.09;5015180;28;45389;-90
2021/07/19 02:09:51;;;;;;;;;7.00;5.67;;;;;22.44;53.63;101769.66;5014885;28;45369;-91
2021/07/19 02:12:16;;;;;;;;;10.00;6.67;;;;;22.43;53.39;101762.66;4999124;28;45374;-92
2021/07/19 02:14:44;;;;;;;;;5.33;5.33;;;;;22.43;53.53;101771.47;4997807;28;46804;-91
2021/07/19 02:17:12;;;;;;;;;10.00;8.00;;;;;22.37;54.01;101756.00;4999442;28;45335;-91
2021/07/19 02:19:39;;;;;;;;;7.33;6.67;;;;;22.35;53.59;101765.84;4998062;28;45434;-92
2021/07/19 02:22:06;;;;;;;;;9.33;6.67;;;;;22.37;53.98;101773.69;4998645;28;45342;-91
2021/07/19 02:24:33;;;;;;;;;6.33;6.33;;;;;22.33;54.32;101770.41;4997715;28;47238;-91
2021/07/19 02:27:00;;;;;;;;;6.00;6.00;;;;;22.34;54.19;101774.75;4997702;28;46178;-92
2021/07/19 02:29:26;;;;;;;;;7.00;6.33;;;;;22.34;53.91;101776.53;4997879;28;45409;-91
2021/07/19 02:31:52;;;;;;;;;8.67;7.00;;;;;22.33;53.76;101770.41;4991142;28;45345;-91
2021/07/19 02:34:19;;;;;;;;;7.33;7.33;;;;;22.33;53.85;101774.84;4994542;28;47883;-91
2021/07/19 02:36:47;;;;;;;;;10.00;8.00;;;;;22.32;54.25;101779.31;4984841;28;45305;-91
2021/07/19 02:39:13;;;;;;;;;8.67;7.67;;;;;22.31;53.79;101774.13;4998210;28;45268;-92
2021/07/19 02:41:40;;;;;;;;;7.00;7.00;;;;;22.31;54.13;101782.91;4998229;28;45307;-92
2021/07/19 02:44:06;;;;;;;;;7.33;7.33;;;;;22.30;54.22;101778.56;4995760;28;45849;-92
2021/07/19 02:46:33;;;;;;;;;7.33;7.00;;;;;22.26;54.10;101779.75;4997514;28;45951;-91
2021/07/19 02:49:00;;;;;;;;;9.00;7.67;;;;;22.28;54.31;101783.16;4997871;28;45383;-92
2021/07/19 02:51:30;;;;;;;;;7.67;7.33;;;;;22.27;54.44;101779.63;4998043;28;45290;-91
2021/07/19 02:53:58;;;;;;;;;9.33;7.67;;;;;22.25;54.60;101784.19;4996416;28;47459;-91
2021/07/19 02:56:24;;;;;;;;;6.00;6.00;;;;;22.23;54.35;101779.97;4997501;28;45377;-92
2021/07/19 02:58:51;;;;;;;;;7.67;7.67;;;;;22.22;54.61;101781.75;4997641;28;44726;-92
2021/07/19 03:01:21;;;;;;;;;7.33;6.67;;;;;22.21;54.40;101782.72;5014422;28;44965;-91
2021/07/19 03:03:49;;;;;;;;;6.00;6.00;;;;;22.18;54.58;101776.78;5009693;28;47265;-92
2021/07/19 03:06:20;;;;;;;;;8.00;8.00;;;;;22.17;54.60;101783.88;4981327;28;45343;-91
2021/07/19 03:08:48;;;;;;;;;8.33;6.33;;;;;22.14;54.85;101774.31;4998739;28;45382;-92
2021/07/19 03:11:20;;;;;;;;;8.33;6.67;;;;;22.13;55.10;101777.94;4997524;28;45407;-91
2021/07/19 03:13:53;;;;;;;;;9.33;7.33;;;;;22.10;54.74;101772.00;4997420;28;47999;-91
2021/07/19 03:16:20;;;;;;;;;7.33;6.67;;;;;22.09;55.19;101772.97;4991293;28;45453;-91
2021/07/19 03:18:47;;;;;;;;;8.33;7.67;;;;;22.04;55.35;101768.00;4997621;28;45310;-91
2021/07/19 03:21:16;;;;;;;;;8.67;7.67;;;;;22.01;54.91;101766.41;4998836;28;45375;-91
2021/07/19 03:23:45;;;;;;;;;7.00;7.00;;;;;22.00;55.27;101766.50;4998306;28;45366;-92
2021/07/19 03:26:11;;;;;;;;;8.00;8.00;;;;;22.01;55.02;101768.19;4995400;28;45578;-91
2021/07/19 03:28:38;;;;;;;;;8.67;8.00;;;;;22.00;55.01;101775.28;4997134;28;45296;-91
2021/07/19 03:31:04;;;;;;;;;8.00;8.00;;;;;21.98;55.30;101766.59;4997231;28;45379;-91
2021/07/19 03:33:31;;;;;;;;;8.67;7.00;;;;;21.97;54.99;101772.84;5013567;28;47037;-91
2021/07/19 03:35:57;;;;;;;;;8.00;7.67;;;;;21.96;55.02;101772.94;5008700;28;45569;-90
2021/07/19 03:38:24;;;;;;;;;9.33;7.67;;;;;21.91;55.25;101760.03;5013469;28;45294;-91
2021/07/19 03:40:54;;;;;;;;;11.33;9.00;;;;;21.92;55.48;101766.16;5013396;28;45496;-91
2021/07/19 03:43:19;;;;;;;;;8.67;8.33;;;;;21.89;55.05;101754.81;5012798;28;47130;-91
2021/07/19 03:45:48;;;;;;;;;9.00;7.67;;;;;21.86;55.69;101757.66;4997915;28;45349;-91
2021/07/19 03:48:18;;;;;;;;;9.00;7.33;;;;;21.84;55.13;101756.94;4994991;28;45302;-91
2021/07/19 03:50:43;;;;;;;;;10.00;8.33;;;;;21.85;55.77;101761.28;4998045;28;45462;-91
2021/07/19 03:53:12;;;;;;;;;8.00;8.00;;;;;21.82;55.76;101750.91;4996562;28;47314;-92
2021/07/19 03:55:38;;;;;;;;;9.33;9.33;;;;;21.81;55.46;101758.94;4997832;28;45328;-92
2021/07/19 03:58:04;;;;;;;;;8.00;7.00;;;;;21.77;55.36;101755.66;4985998;28;45250;-92
2021/07/19 04:00:30;;;;;;;;;9.33;9.00;;;;;21.74;55.73;101755.84;4977283;28;45462;-91
2021/07/19 04:02:56;;;;;;;;;8.00;7.00;;;;;21.72;55.87;101761.25;4976847;28;47425;-90
2021/07/19 04:05:24;;;;;;;;;9.33;7.00;;;;;21.66;55.67;101756.34;4977896;28;45368;-92
2021/07/19 04:07:50;;;;;;;;;9.33;9.33;;;;;21.68;55.70;101757.09;4978995;28;45303;-92
2021/07/19 04:10:19;;;;;;;;;10.33;10.33;;;;;21.69;55.71;101764.09;4993297;28;45542;-91
2021/07/19 04:12:48;;;;;;;;;11.00;8.33;;;;;21.65;56.12;101759.13;4996371;28;47248;-92
2021/07/19 04:15:15;;;;;;;;;8.00;7.00;;;;;21.62;55.64;101754.88;4997730;28;44695;-91
2021/07/19 04:17:41;;;;;;;;;8.33;7.33;;;;;21.65;56.04;101765.25;5012775;28;45459;-91
2021/07/19 04:20:10;;;;;;;;;8.00;7.33;;;;;21.62;55.74;101770.75;4997069;28;45527;-91
2021/07/19 04:22:36;;;;;;;;;9.00;9.00;;;;;21.61;55.58;101766.38;4996394;28;47229;-90
2021/07/19 04:25:05;;;;;;;;;9.33;9.00;;;;;21.62;55.79;101765.47;4996187;28;45387;-91
2021/07/19 04:27:34;;;;;;;;;9.00;8.33;;;;;21.59;56.08;101758.56;4996200;28;45303;-91
2021/07/19 04:30:00;;;;;;;;;8.67;7.00;;;;;21.58;56.18;101756.03;4985777;28;45387;-91
2021/07/19 04:32:25;;;;;;;;;9.67;8.67;;;;;21.57;55.77;101749.03;4976284;28;46874;-91
2021/07/19 04:34:50;;;;;;;;;12.00;8.75;;;;;21.55;56.02;101751.78;4976397;28;45336;-92
2021/07/19 04:37:16;;;;;;;;;9.75;9.75;;;;;21.51;56.28;101746.81;4976686;28;45486;-91
2021/07/19 04:39:42;;;;;;;;;9.50;8.75;;;;;21.46;56.50;101745.31;4978441;28;45439;-91
2021/07/19 04:42:08;;;;;;;;;9.75;9.25;;;;;21.43;55.96;101752.59;4996943;28;45758;-91
2021/07/19 04:44:34;;;;;;;;;9.00;9.00;;;;;21.43;56.64;101758.72;4996330;28;45776;-91
2021/07/19 04:47:00;;;;;;;;;9.00;7.75;;;;;21.41;56.09;101755.34;4997628;28;45259;-92
2021/07/19 04:49:26;;;;;;;;;9.00;9.00;;;;;21.39;56.27;101754.59;4996233;28;45549;-90
2021/07/19 04:51:52;;;;;;;;;12.25;9.00;;;;;21.34;56.51;101752.25;4993643;28;46204;-92
2021/07/19 04:54:25;;;;;;;;;8.75;8.25;;;;;21.29;56.96;101753.50;4996994;28;45403;-91
2021/07/19 04:56:53;;;;;;;;;8.50;8.25;;;;;21.27;57.01;101750.97;4999732;28;45718;-91
2021/07/19 04:59:19;;;;;;;;;10.50;9.00;;;;;21.25;56.80;101759.94;4999824;28;45394;-91
2021/07/19 05:01:49;;;;;;;;;11.00;9.25;;;;;21.20;56.60;101757.63;4998744;28;46777;-91
2021/07/19 05:04:17;;;;;;;;;11.00;8.50;;;;;21.19;57.13;101758.53;4999217;28;45359;-91
2021/07/19 05:06:46;;;;;;;;;10.33;9.67;;;;;21.17;56.96;101763.09;4999361;28;45707;-91
2021/07/19 05:09:15;;;;;;;;;9.00;9.00;;;;;21.19;56.74;101769.97;4995861;28;45374;-91
2021/07/19 05:11:42;;;;;;;;;10.75;9.25;;;;;21.18;56.88;101764.78;4979902;28;48277;-91
2021/07/19 05:14:08;;;;;;;;;10.67;7.67;;;;;21.19;57.31;101769.13;4979711;28;45428;-91
2021/07/19 05:16:34;;;;;;;;;10.50;10.50;;;;;21.18;57.65;101770.94;4979254;28;45496;-91
2021/07/19 05:19:02;;;;;;;;;8.50;8.50;;;;;21.19;57.43;101777.06;4979775;28;45554;-91
2021/07/19 05:21:27;;;;;;;;;9.50;8.00;;;;;21.18;57.64;101780.66;4988290;28;47317;-91
2021/07/19 05:23:53;;;;;;;;;8.25;7.75;;;;;21.18;57.56;101775.38;4998897;28;45428;-90
2021/07/19 05:26:18;;;;;;;;;10.50;9.25;;;;;21.21;57.31;101768.06;4999182;28;45381;-91
2021/07/19 05:28:44;;;;;;;;;10.67;9.00;;;;;21.22;57.51;101763.66;4999316;28;45417;-91
2021/07/19 05:31:09;;;;;;;;;11.75;9.50;;;;;21.23;57.48;101768.84;4998988;28;47094;-91
2021/07/19 05:33:34;;;;;;;;;14.50;10.00;;;;;21.26;57.71;101774.88;4999525;28;45347;-91
2021/07/19 05:36:00;;;;;;;;;8.75;8.75;;;;;21.27;57.36;101765.97;4997311;28;45441;-90
2021/07/19 05:38:25;;;;;;;;;8.75;7.50;;;;;21.30;57.84;101765.78;5000418;28;45241;-90
2021/07/19 05:40:51;;;;;;;;;10.00;10.00;;;;;21.33;57.47;101770.88;4998381;28;47071;-91
2021/07/19 05:43:19;;;;;;;;;11.00;11.00;;;;;21.38;57.75;101778.53;4998933;28;45261;-91
2021/07/19 05:45:44;;;;;;;;;12.25;10.50;;;;;21.37;57.83;101777.66;4998395;28;45384;-91
2021/07/19 05:48:10;;;;;;;;;11.00;10.00;;;;;21.36;57.71;101774.19;4998900;28;45294;-91
2021/07/19 05:50:36;;;;;;;;;10.25;9.00;;;;;21.41;58.26;101776.53;5014954;28;48576;-89
2021/07/19 05:53:02;;;;;;;;;8.00;8.00;;;;;21.45;57.64;101774.53;4998303;28;46512;-91
2021/07/19 05:55:29;;;;;;;;;9.75;9.50;;;;;21.49;57.52;101776.84;4998870;28;45241;-91
2021/07/19 05:57:59;;;;;;;;;13.25;10.75;;;;;21.55;57.88;101783.56;4988010;28;45300;-90
2021/07/19 06:00:25;;;;;;;;;10.75;10.75;;;;;21.55;57.84;101775.63;4999800;28;45488;-91
2021/07/19 06:02:51;;;;;;;;;9.75;8.50;;;;;21.55;57.62;101780.91;4994683;28;45397;-91
2021/07/19 06:05:16;;;;;;;;;8.25;7.50;;;;;21.59;57.50;101777.13;4982321;28;45339;-91
2021/07/19 06:07:42;;;;;;;;;12.50;9.25;;;;;21.66;57.55;101771.41;4998479;28;45393;-91
2021/07/19 06:10:10;;;;;;;;;10.75;9.25;;;;;21.72;58.04;101781.63;4998277;28;47129;-92
2021/07/19 06:12:37;;;;;;;;;10.00;9.00;;;;;21.72;57.16;101776.31;4988826;28;45387;-92
2021/07/19 06:15:04;;;;;;;;;9.75;7.00;;;;;21.74;57.91;101777.06;4999771;28;45221;-91
2021/07/19 06:17:33;;;;;;;;;10.25;8.75;;;;;21.75;57.77;101774.31;4998015;28;45394;-91
2021/07/19 06:19:58;;;;;;;;;12.00;10.50;;;;;21.83;57.61;101773.78;5014527;28;47362;-91
2021/07/19 06:22:24;;;;;;;;;9.33;9.33;;;;;21.83;57.22;101762.34;5004444;28;45816;-91
2021/07/19 06:24:51;;;;;;;;;10.00;10.00;;;;;21.85;57.68;101766.56;4979946;28;45285;-90
2021/07/19 06:27:17;;;;;;;;;11.67;8.00;;;;;21.91;57.51;101772.41;4978861;28;45295;-90
2021/07/19 06:29:42;;;;;;;;;10.33;10.00;;;;;21.91;57.24;101773.28;4995449;28;47175;-92
2021/07/19 06:32:08;;;;;;;;;11.00;11.00;;;;;21.94;57.36;101767.75;4986493;28;45656;-91
2021/07/19 06:34:33;;;;;;;;;10.33;10.33;;;;;22.00;57.44;101775.28;4998334;28;45280;-90
2021/07/19 06:36:59;;;;;;;;;12.00;11.00;;;;;22.07;57.31;101775.72;5006360;28;46050;-91
2021/07/19 06:39:24;;;;;;;;;5.33;5.33;;;;;22.16;57.63;101779.53;5012375;28;47120;-91
2021/07/19 06:41:49;;;;;;;;;10.75;8.50;;;;;22.22;57.41;101780.91;5014269;28;45493;-91
2021/07/19 06:44:15;;;;;;;;;8.50;7.50;;;;;22.25;57.38;101778.03;5006949;28;45338;-91
2021/07/19 06:46:40;;;;;;;;;11.50;10.25;;;;;22.29;56.63;101782.19;4978422;28;45279;-92
2021/07/19 06:49:06;;;;;;;;;10.33;10.33;;;;;22.29;57.19;101782.19;4994583;28;47937;-91
2021/07/19 06:51:31;;;;;;;;;9.00;8.00;;;;;22.36;57.19;101786.09;5000367;28;45789;-92
2021/07/19 06:53:56;;;;;;;;;9.75;9.25;;;;;22.40;56.90;101778.78;4997260;28;45494;-91
2021/07/19 06:56:22;;;;;;;;;7.33;7.33;;;;;22.44;56.77;101780.25;4984430;28;45450;-91
2021/07/19 06:58:47;;;;;;;;;10.00;10.00;;;;;22.45;56.96;101779.28;4983873;28;45502;-89
2021/07/19 07:01:13;;;;;;;;;9.75;8.75;;;;;22.52;56.48;101777.97;5014040;28;45333;-91
2021/07/19 07:03:38;;;;;;;;;9.33;9.33;;;;;22.56;56.53;101775.94;4994348;28;45284;-91
2021/07/19 07:06:03;;;;;;;;;10.33;9.67;;;;;22.63;56.21;101781.66;5014469;28;45568;-91
2021/07/19 07:08:29;;;;;;;;;9.33;9.00;;;;;22.65;56.92;101769.13;5011680;28;47242;-91
2021/07/19 07:10:54;;;;;;;;;8.00;8.00;;;;;22.70;56.38;101774.94;4996212;28;45827;-90
2021/07/19 07:13:20;;;;;;;;;10.33;9.00;;;;;22.75;56.50;101772.81;4996554;28;45308;-90
2021/07/19 07:15:45;;;;;;;;;9.33;9.00;;;;;22.78;56.85;101769.91;4994627;28;44857;-91
2021/07/19 07:18:11;;;;;;;;;10.67;10.33;;;;;22.87;56.49;101775.53;4996765;28;46526;-91
2021/07/19 07:20:37;;;;;;;;;9.67;9.67;;;;;22.89;56.62;101773.63;4994220;28;45700;-92
2021/07/19 07:23:04;;;;;;;;;11.33;9.33;;;;;22.93;56.64;101772.44;4993510;28;46930;-91
2021/07/19 07:25:30;;;;;;;;;8.67;8.67;;;;;22.95;56.41;101768.72;4994188;28;45329;-91
2021/07/19 07:27:56;;;;;;;;;9.33;9.33;;;;;22.99;55.96;101766.69;4996707;28;48372;-92
2021/07/19 07:30:22;;;;;;;;;12.33;11.33;;;;;23.04;56.37;101774.28;4990669;28;45368;-92
2021/07/19 07:32:48;;;;;;;;;9.33;8.67;;;;;23.09;56.12;101769.50;4989980;28;45354;-89
2021/07/19 07:35:14;;;;;;;;;10.67;9.33;;;;;23.15;56.01;101774.34;4982827;28;45343;-91
2021/07/19 07:37:40;;;;;;;;;9.67;9.67;;;;;23.20;56.24;101766.06;4993715;28;47270;-91
2021/07/19 07:40:08;;;;;;;;;10.67;9.33;;;;;23.27;56.35;101769.97;4996064;28;45248;-90
2021/07/19 07:42:34;;;;;;;;;9.00;8.67;;;;;23.31;55.97;101763.50;5006487;28;45457;-91
2021/07/19 07:45:00;;;;;;;;;9.00;8.33;;;;;23.38;55.76;101768.34;4987960;28;45412;-92
2021/07/19 07:47:26;;;;;;;;;10.67;9.67;;;;;23.39;55.37;101768.25;4996888;28;47285;-91
2021/07/19 07:49:52;;;;;;;;;9.00;7.67;;;;;23.44;55.33;101763.44;4996707;28;45832;-90
2021/07/19 07:52:19;;;;;;;;;8.00;8.00;;;;;23.54;55.48;101766.25;4997392;28;45366;-91
2021/07/19 07:54:45;;;;;;;;;9.33;8.67;;;;;23.60;54.96;101772.88;4989618;28;45702;-91
2021/07/19 07:57:10;;;;;;;;;9.67;7.33;;;;;23.66;55.59;101760.97;4988851;28;47178;-91
2021/07/19 07:59:37;;;;;;;;;6.67;6.67;;;;;23.70;55.41;101765.91;4987833;28;46056;-91
2021/07/19 08:02:03;;;;;;;;;7.67;7.67;;;;;23.77;54.61;101761.00;4992528;28;45360;-90
2021/07/19 08:04:29;;;;;;;;;9.00;9.00;;;;;23.84;54.82;101764.03;4994505;28;45481;-90
2021/07/19 08:06:59;;;;;;;;;10.67;10.67;;;;;23.91;54.71;101761.72;4992000;28;47798;-91
2021/07/19 08:09:26;;;;;;;;;10.67;9.00;;;;;23.94;54.52;101762.38;5022955;28;45488;-91
2021/07/19 08:11:53;;;;;;;;;8.00;7.33;;;;;24.01;54.63;101760.91;4996803;28;45273;-91
2021/07/19 08:14:18;;;;;;;;;7.33;7.33;;;;;24.09;53.94;101763.00;4996780;28;45241;-91
2021/07/19 08:16:43;;;;;;;;;8.00;8.00;;;;;24.17;53.00;101753.59;4997567;28;45338;-92
2021/07/19 08:19:10;;;;;;;;;9.00;8.67;;;;;24.27;52.51;101762.53;4995212;28;45741;-91
2021/07/19 08:21:38;;;;;;;;;6.33;6.33;;;;;24.35;52.25;101756.63;4988815;28;45652;-91
2021/07/19 08:24:04;;;;;;;;;9.00;8.67;;;;;24.46;52.11;101763.72;5003961;28;45558;-91
2021/07/19 08:26:30;;;;;;;;;7.67;7.67;;;;;24.54;51.15;101756.00;4979297;28;45433;-91
2021/07/19 08:28:56;;;;;;;;;5.67;3.00;;;;;24.62;51.71;101760.72;5011580;28;45673;-91
2021/07/19 08:31:27;;;;;;;;;9.00;9.00;;;;;24.68;52.38;101754.91;5012667;28;45264;-90
2021/07/19 08:33:53;;;;;;;;;7.33;6.67;;;;;24.74;52.30;101749.06;4994379;28;45690;-90
2021/07/19 08:36:18;;;;;;;;;6.67;6.33;;;;;24.83;52.11;101752.84;4976243;28;47494;-90
2021/07/19 08:38:46;;;;;;;;;6.67;6.67;;;;;24.92;51.89;101746.78;4988768;28;45248;-91
2021/07/19 08:41:14;;;;;;;;;7.00;5.67;;;;;25.01;51.74;101750.50;5002547;28;45564;-91
2021/07/19 08:43:41;;;;;;;;;5.33;5.33;;;;;25.11;51.24;101747.06;5018956;28;45442;-91
2021/07/19 08:46:08;;;;;;;;;7.33;6.00;;;;;25.19;50.42;101745.44;5002663;28;47185;-91
2021/07/19 08:48:35;;;;;;;;;5.00;5.00;;;;;25.29;50.20;101750.00;5011670;28;45398;-90
2021/07/19 08:51:02;;;;;;;;;6.67;6.67;;;;;25.37;50.61;101744.91;4993327;28;45437;-93
2021/07/19 08:53:31;;;;;;;;;7.00;5.00;;;;;25.44;50.34;101737.22;4989349;28;45437;-93
2021/07/19 08:55:56;;;;;;;;;6.00;6.00;;;;;25.56;49.69;101752.22;4986364;28;47059;-91
2021/07/19 08:58:23;;;;;;;;;9.00;6.00;;;;;25.65;49.84;101737.28;4993643;28;45615;-91
2021/07/19 09:00:51;;;;;;;;;6.33;5.33;;;;;25.75;49.89;101740.81;4993552;28;45480;-91
2021/07/19 09:03:16;;;;;;;;;7.00;5.67;;;;;25.87;49.34;101741.59;4985636;28;45367;-91
2021/07/19 09:05:42;;;;;;;;;7.00;6.00;;;;;25.99;48.77;101737.03;4994859;28;47008;-91
2021/07/19 09:08:08;;;;;;;;;8.00;7.00;;;;;26.11;48.31;101740.44;4995332;28;45758;-90
2021/07/19 09:10:34;;;;;;;;;7.00;5.33;;;;;26.24;47.14;101737.59;5012263;28;45303;-91
2021/07/19 09:13:00;;;;;;;;;6.00;4.00;;;;;26.31;47.08;101734.38;4988626;28;45296;-91
2021/07/19 09:15:32;;;;;;;;;6.00;4.00;;;;;26.39;46.81;101726.56;4993272;28;47762;-91
2021/07/19 09:17:59;;;;;;;;;5.00;4.33;;;;;26.47;46.18;101726.72;4985229;28;45327;-91
2021/07/19 09:20:30;;;;;;;;;4.00;3.00;;;;;26.60;46.24;101734.47;4982232;28;45371;-91
2021/07/19 09:22:56;;;;;;;;;5.67;4.33;;;;;26.70;45.91;101731.81;4988934;28;45542;-91
2021/07/19 09:25:21;;;;;;;;;6.33;5.33;;;;;26.78;45.59;101734.66;4991376;28;47078;-92
2021/07/19 09:28:02;;;;;;;;;3.67;3.00;;;;;26.89;45.36;101735.50;4992512;28;45497;-90
2021/07/19 09:30:28;;;;;;;;;3.00;3.00;;;;;27.00;45.54;101742.56;4992323;28;45383;-90
2021/07/19 09:32:55;;;;;;;;;6.67;3.67;;;;;27.13;45.19;101736.94;4992774;28;45272;-92
2021/07/19 09:35:21;;;;;;;;;7.00;6.00;;;;;27.21;45.19;101748.63;4983259;28;47674;-91
2021/07/19 09:37:46;;;;;;;;;5.67;4.00;;;;;27.33;44.71;101743.13;4992355;28;45634;-91
2021/07/19 09:40:13;;;;;;;;;5.33;4.67;;;;;27.43;44.73;101743.09;4997368;28;45410;-91
2021/07/19 09:42:43;;;;;;;;;4.00;4.00;;;;;27.52;44.79;101739.59;4982876;28;45423;-92
2021/07/19 09:45:09;;;;;;;;;6.00;5.67;;;;;27.64;43.57;101737.63;4998041;28;47352;-92
2021/07/19 09:47:45;;;;;;;;;6.67;4.33;;;;;27.75;43.65;101733.94;5011680;28;46347;-92
2021/07/19 09:50:13;;;;;;;;;6.33;4.67;;;;;27.86;43.51;101731.09;4978615;28;45356;-91
2021/07/19 09:52:40;;;;;;;;;6.00;5.00;;;;;27.97;43.33;101729.22;4982280;28;45395;-90
2021/07/19 09:55:06;;;;;;;;;6.33;5.00;;;;;28.06;43.53;101722.16;4989158;28;45597;-91
2021/07/19 09:57:31;;;;;;;;;6.00;5.00;;;;;28.17;43.41;101729.97;4994992;28;45509;-90
2021/07/19 09:59:58;;;;;;;;;4.33;3.33;;;;;28.29;43.51;101717.28;4999496;28;45362;-89
2021/07/19 10:02:38;;;;;;;;;5.67;5.33;;;;;28.43;44.27;101726.66;4993300;28;45498;-90
2021/07/19 10:05:06;;;;;;;;;5.67;5.00;;;;;28.57;43.97;101724.44;4980152;28;45619;-91
2021/07/19 10:07:31;;;;;;;;;7.00;6.00;;;;;28.67;43.99;101726.09;4994447;28;45374;-90
2021/07/19 10:10:05;;;;;;;;;9.33;5.33;;;;;28.78;43.89;101725.00;4979632;28;45393;-91
2021/07/19 10:12:31;;;;;;;;;8.33;7.00;;;;;28.91;43.54;101716.63;4994171;28;45545;-91
2021/07/19 10:14:57;;;;;;;;;8.67;6.00;;;;;29.06;43.54;101718.75;4990787;28;45391;-90
2021/07/19 10:17:24;;;;;;;;;6.33;6.00;;;;;29.20;43.12;101712.84;4987127;28;45438;-91
2021/07/19 10:19:53;;;;;;;;;6.33;5.67;;;;;29.34;42.94;101718.63;4992052;28;45437;-91
2021/07/19 10:22:18;;;;;;;;;8.67;6.67;;;;;29.47;42.47;101712.88;4981624;28;45601;-90
2021/07/19 10:24:44;;;;;;;;;7.33;6.00;;;;;29.59;42.31;101711.66;5002020;28;47447;-90
2021/07/19 10:27:18;;;;;;;;;7.00;6.00;;;;;29.75;41.84;101707.38;4992368;28;45494;-92
2021/07/19 10:29:44;;;;;;;;;4.00;4.00;;;;;29.84;42.08;101711.78;4995174;28;45497;-90
2021/07/19 10:32:11;;;;;;;;;7.00;7.00;;;;;30.01;41.00;101711.88;4998747;28;45504;-91
2021/07/19 10:34:37;;;;;;;;;8.00;6.67;;;;;30.13;41.09;101710.59;4996956;28;47209;-90
2021/07/19 10:37:07;;;;;;;;;5.00;5.00;;;;;30.28;41.25;101715.34;4996399;28;45458;-91
2021/07/19 10:39:35;;;;;;;;;5.67;5.00;;;;;30.42;41.39;101716.56;4997589;28;45444;-91
2021/07/19 10:42:09;;;;;;;;;5.33;5.33;;;;;30.56;41.38;101712.41;4997619;28;45439;-92
2021/07/19 10:44:37;;;;;;;;;7.33;6.33;;;;;30.68;40.85;101704.84;4997358;28;47481;-91
2021/07/19 10:47:22;;;;;;;;;8.33;6.00;;;;;30.82;40.02;101703.38;4996228;28;45500;-91
2021/07/19 10:49:58;;;;;;;;;9.67;7.33;;;;;30.95;37.97;101702.91;4993286;28;45471;-91
2021/07/19 10:52:36;;;;;;;;;5.67;5.67;;;;;31.06;40.04;101689.13;4978201;28;45337;-91
2021/07/19 10:55:04;;;;;;;;;7.67;7.00;;;;;31.18;39.08;101699.53;4993759;28;47605;-90
2021/07/19 10:57:44;;;;;;;;;5.67;5.67;;;;;31.25;38.41;101697.00;4995125;28;45493;-91
2021/07/19 11:00:19;;;;;;;;;5.00;5.00;;;;;31.36;38.83;101703.91;4977209;28;45218;-90
2021/07/19 11:02:44;;;;;;;;;4.00;3.67;;;;;31.37;38.05;101701.06;4998155;28;45464;-91
2021/07/19 11:05:13;;;;;;;;;6.00;6.00;;;;;31.46;38.35;101696.50;4996394;28;48198;-89
2021/07/19 11:07:40;;;;;;;;;6.33;5.00;;;;;31.58;37.81;101697.84;4996751;28;45359;-90
2021/07/19 11:10:20;;;;;;;;;5.67;5.00;;;;;31.69;38.24;101683.16;4995458;28;45286;-91
2021/07/19 11:12:57;;;;;;;;;7.67;6.33;;;;;31.82;38.77;101682.63;4998435;28;45397;-90
2021/07/19 11:15:39;;;;;;;;;7.33;7.33;;;;;32.02;37.40;101692.16;4996696;28;47288;-90
2021/07/19 11:18:12;;;;;;;;;8.67;6.33;;;;;32.17;37.49;101685.03;4996500;28;45312;-91
2021/07/19 11:20:46;;;;;;;;;6.33;5.67;;;;;32.33;37.31;101689.47;4991170;28;45554;-90
2021/07/19 11:23:12;;;;;;;;;8.33;4.67;;;;;32.45;37.24;101684.56;4977041;28;45388;-91
2021/07/19 11:25:42;;;;;;;;;6.67;5.67;;;;;32.58;36.83;101692.03;4976744;28;48472;-91